Terminal Aerodrome Forecast
Issued by NWS

Home | Current Version | Previous Version | Text Only | Print | Product List | Glossary On
Versions: 1 2 3 4 5 6 7 8 9 10 11 12 13 14 15 16 17 18 19 20 21 22 23 24 25 26 27 28 29 30 31 32 33 34 35 36 37 38 39 40 41 42 43 44 45 46 47 48
000
FTAK31 PANC 231611 AAA
TAFADU
TAF AMD
PADU 231611Z 2316/2412 21013KT P6SM SCT020 BKN120
      TEMPO 2316/2318 BKN020
     FM232000 28010KT P6SM -SHRA OVC020
     FM240600 27008G18KT 3SM -RA BR OVC007=

USA.gov is the U.S. government's official web portal to all federal, state and local government web resources and services.